createdAt,value
2022-12-01T00:01:27.180Z,929.42
2022-12-01T00:03:58.513Z,929.42
2022-12-01T00:06:30.265Z,927.22
2022-12-01T00:09:19.741Z,931.20
2022-12-01T00:11:52.107Z,926.78
2022-12-01T00:14:23.345Z,930.35
2022-12-01T00:19:28.145Z,928.22
2022-12-01T00:21:59.685Z,931.30
2022-12-01T00:24:34.025Z,927.38
2022-12-01T00:27:05.674Z,929.03
2022-12-01T00:29:37.969Z,927.85
2022-12-01T00:34:41.005Z,929.15
2022-12-01T00:37:12.905Z,928.72
2022-12-01T00:39:46.838Z,929.42
2022-12-01T00:42:20.964Z,927.72
2022-12-01T00:44:52.425Z,929.53
2022-12-01T00:47:24.345Z,928.72
2022-12-01T00:49:55.832Z,929.25
2022-12-01T00:52:27.380Z,932.28
2022-12-01T00:55:01.152Z,930.10
2022-12-01T00:57:32.660Z,929.15
2022-12-01T01:00:06.046Z,932.47
2022-12-01T01:02:38.015Z,929.22
2022-12-01T01:10:15.386Z,925.70
2022-12-01T01:12:47.026Z,929.17
2022-12-01T01:15:18.265Z,933.97
2022-12-01T01:20:20.791Z,932.90
2022-12-01T01:25:26.065Z,934.75
2022-12-01T01:27:57.684Z,928.45
2022-12-01T01:30:29.287Z,929.13
2022-12-01T01:33:01.933Z,928.97
2022-12-01T01:35:33.614Z,930.90
2022-12-01T01:38:05.564Z,930.35
2022-12-01T01:40:46.524Z,928.65
2022-12-01T01:43:19.881Z,928.35
2022-12-01T01:45:51.204Z,928.90
2022-12-01T01:50:53.769Z,929.88
2022-12-01T01:55:59.122Z,925.17
2022-12-01T01:58:31.089Z,928.92
2022-12-01T02:01:02.322Z,927.40
2022-12-01T02:06:05.730Z,928.95
2022-12-01T02:08:39.205Z,927.63
2022-12-01T02:11:48.828Z,930.25
2022-12-01T02:14:43.214Z,929.28
2022-12-01T02:17:25.851Z,928.53
2022-12-01T02:20:25.368Z,927.15
2022-12-01T02:23:25.587Z,927.40
2022-12-01T02:26:17.246Z,926.78
2022-12-01T02:29:06.330Z,927.00
2022-12-01T02:31:46.065Z,928.67
2022-12-01T02:34:27.066Z,928.47
2022-12-01T02:37:05.601Z,928.08
2022-12-01T02:39:40.809Z,928.88
2022-12-01T02:42:39.129Z,930.25
2022-12-01T02:45:18.904Z,929.25
2022-12-01T02:48:30.982Z,929.45
2022-12-01T02:51:10.185Z,931.33
2022-12-01T02:53:41.605Z,929.55
2022-12-01T02:56:16.237Z,930.10
2022-12-01T02:58:47.422Z,929.63
2022-12-01T03:01:32.988Z,930.65
2022-12-01T03:04:25.816Z,928.33
2022-12-01T03:07:06.099Z,928.67
2022-12-01T03:10:02.649Z,928.72
2022-12-01T03:12:42.128Z,932.38
2022-12-01T03:15:21.330Z,929.60
2022-12-01T03:18:01.696Z,931.55
2022-12-01T03:20:39.110Z,931.22
2022-12-01T03:23:13.880Z,930.38
2022-12-01T03:25:48.321Z,930.53
2022-12-01T03:28:29.000Z,930.00
2022-12-01T03:31:03.446Z,930.30
2022-12-01T03:33:39.646Z,928.80
2022-12-01T03:36:17.957Z,930.22
2022-12-01T03:38:55.055Z,929.45
2022-12-01T03:41:30.896Z,927.95
2022-12-01T03:44:08.531Z,930.10
2022-12-01T03:46:49.011Z,926.88
2022-12-01T03:49:21.872Z,927.97
2022-12-01T03:52:08.838Z,927.58
2022-12-01T03:54:50.600Z,927.58
2022-12-01T03:57:25.940Z,930.60
2022-12-01T03:59:58.255Z,927.65
2022-12-01T04:02:31.068Z,927.95
2022-12-01T04:05:02.685Z,927.55
2022-12-01T04:07:36.516Z,929.50
2022-12-01T04:10:09.772Z,929.90
2022-12-01T04:12:38.822Z,929.35
2022-12-01T04:15:13.124Z,929.33
2022-12-01T04:17:46.251Z,929.22
2022-12-01T04:20:18.766Z,930.47
2022-12-01T04:22:52.885Z,930.35
2022-12-01T04:25:24.340Z,932.35
2022-12-01T04:27:55.601Z,929.45
2022-12-01T04:30:26.990Z,929.33
2022-12-01T04:32:58.581Z,928.80
2022-12-01T04:35:30.164Z,931.85
2022-12-01T04:38:04.132Z,929.65
2022-12-01T04:40:35.595Z,930.17
2022-12-01T04:43:07.005Z,928.85
2022-12-01T04:45:38.514Z,929.13
2022-12-01T04:48:09.992Z,930.40
2022-12-01T04:50:41.791Z,929.50
2022-12-01T04:53:15.641Z,929.55
2022-12-01T04:55:47.160Z,929.00
2022-12-01T04:58:18.575Z,927.33
2022-12-01T05:00:50.145Z,928.47
2022-12-01T05:03:21.406Z,929.40
2022-12-01T05:06:03.044Z,929.15
2022-12-01T05:08:37.111Z,928.00
2022-12-01T05:11:10.310Z,929.90
2022-12-01T05:13:42.707Z,929.67
2022-12-01T05:16:15.979Z,929.22
2022-12-01T05:18:50.505Z,929.20
2022-12-01T05:21:19.553Z,930.50
2022-12-01T05:23:53.323Z,929.53
2022-12-01T05:26:25.096Z,930.35
2022-12-01T05:28:56.292Z,928.05
2022-12-01T05:31:27.957Z,926.72
2022-12-01T05:33:59.351Z,925.35
2022-12-01T05:36:31.134Z,929.35
2022-12-01T05:39:05.340Z,927.38
2022-12-01T05:41:37.001Z,930.38
2022-12-01T05:44:08.458Z,930.97
2022-12-01T05:46:39.952Z,928.67
2022-12-01T05:49:11.261Z,929.25
2022-12-01T05:54:16.816Z,928.40
2022-12-01T05:56:48.340Z,926.38
2022-12-01T05:59:19.651Z,927.63
2022-12-01T06:04:22.405Z,925.10
2022-12-01T06:09:27.480Z,924.65
2022-12-01T06:11:59.106Z,925.47
2022-12-01T06:14:30.745Z,926.08
2022-12-01T06:17:02.359Z,926.00
2022-12-01T06:19:34.265Z,923.85
2022-12-01T06:22:06.395Z,927.13
2022-12-01T06:24:40.232Z,927.10
2022-12-01T06:27:11.787Z,931.45
2022-12-01T06:29:43.135Z,928.10
2022-12-01T06:34:46.010Z,926.78
2022-12-01T06:37:18.102Z,929.45
2022-12-01T06:39:52.544Z,926.65
2022-12-01T06:42:24.237Z,928.45
2022-12-01T06:44:55.704Z,929.10
2022-12-01T06:47:27.459Z,927.03
2022-12-01T06:49:59.524Z,927.30
2022-12-01T06:52:31.533Z,928.80
2022-12-01T06:55:06.844Z,928.67
2022-12-01T06:57:38.965Z,926.35
2022-12-01T07:00:12.686Z,928.65
2022-12-01T07:02:45.403Z,923.78
2022-12-01T07:05:17.297Z,932.53
2022-12-01T07:07:49.411Z,931.75
2022-12-01T07:10:24.102Z,926.13
2022-12-01T07:12:55.728Z,922.92
2022-12-01T07:15:28.905Z,928.97
2022-12-01T07:18:00.639Z,924.63
2022-12-01T07:20:33.219Z,927.72
2022-12-01T07:23:05.262Z,927.42
2022-12-01T07:25:39.279Z,928.38
2022-12-01T07:28:11.598Z,927.13
2022-12-01T07:30:43.393Z,926.95
2022-12-01T07:33:15.337Z,931.03
2022-12-01T07:35:46.756Z,927.60
2022-12-01T07:40:56.601Z,928.13
2022-12-01T07:43:28.275Z,927.05
2022-12-01T07:46:00.270Z,927.33
2022-12-01T07:48:33.084Z,822.42
2022-12-01T07:51:04.967Z,819.38
2022-12-01T07:53:37.116Z,821.58
2022-12-01T07:56:11.904Z,821.30
2022-12-01T07:58:43.918Z,818.42
2022-12-01T08:03:48.656Z,817.97
2022-12-01T08:06:20.897Z,821.10
2022-12-01T08:08:53.322Z,815.72
2022-12-01T08:11:29.819Z,820.88
2022-12-01T08:14:01.758Z,823.58
2022-12-01T08:21:37.805Z,820.78
2022-12-01T08:24:10.038Z,818.78
2022-12-01T08:26:43.978Z,827.13
2022-12-01T08:29:19.984Z,821.55
2022-12-01T08:31:52.096Z,818.63
2022-12-01T08:34:23.766Z,819.58
2022-12-01T08:36:55.237Z,821.70
2022-12-01T08:39:27.038Z,822.05
2022-12-01T08:42:01.339Z,820.15
2022-12-01T08:44:33.242Z,818.92
2022-12-01T08:47:04.957Z,826.70
2022-12-01T08:52:07.927Z,824.50
2022-12-01T08:54:39.616Z,822.72
2022-12-01T08:57:13.879Z,824.83
2022-12-01T08:59:45.960Z,823.88
2022-12-01T09:04:50.301Z,827.45
2022-12-01T09:07:26.670Z,820.85
2022-12-01T09:09:58.756Z,825.70
2022-12-01T09:12:33.359Z,823.72
2022-12-01T09:15:05.166Z,822.08
2022-12-01T09:17:36.858Z,823.65
2022-12-01T09:20:09.818Z,825.15
2022-12-01T09:22:41.236Z,824.63
2022-12-01T09:25:14.961Z,828.42
2022-12-01T09:27:49.379Z,820.75
2022-12-01T09:30:21.541Z,826.90
2022-12-01T09:32:53.359Z,817.40
2022-12-01T09:35:25.579Z,823.15
2022-12-01T09:40:33.099Z,825.83
2022-12-01T09:43:24.025Z,819.28
2022-12-01T09:46:02.557Z,821.87
2022-12-01T09:48:42.710Z,823.97
2022-12-01T09:51:17.879Z,826.92
2022-12-01T09:53:51.421Z,820.92
2022-12-01T09:56:26.218Z,816.97
2022-12-01T09:59:02.298Z,821.60
2022-12-01T10:01:37.591Z,824.20
2022-12-01T10:04:15.078Z,819.95
2022-12-01T10:06:52.120Z,823.28
2022-12-01T10:09:28.729Z,818.42
2022-12-01T10:12:07.500Z,821.75
2022-12-01T10:14:41.860Z,819.47
2022-12-01T10:17:22.661Z,824.92
2022-12-01T10:20:00.837Z,818.75
2022-12-01T10:22:52.978Z,820.90
2022-12-01T10:25:26.874Z,827.58
2022-12-01T10:28:15.477Z,826.33
2022-12-01T10:30:52.797Z,823.53
2022-12-01T10:33:27.860Z,823.85
2022-12-01T10:36:00.766Z,827.80
2022-12-01T10:38:35.520Z,824.92
2022-12-01T10:41:10.224Z,819.17
2022-12-01T10:43:45.312Z,817.42
2022-12-01T10:46:28.886Z,823.38
2022-12-01T10:49:03.109Z,823.83
2022-12-01T10:51:48.476Z,824.22
2022-12-01T10:54:20.880Z,824.63
2022-12-01T10:56:57.951Z,822.45
2022-12-01T10:59:35.385Z,824.17
2022-12-01T11:02:21.115Z,818.80
2022-12-01T11:04:57.578Z,823.22
2022-12-01T11:07:31.920Z,824.30
2022-12-01T11:10:17.063Z,824.55
2022-12-01T11:12:56.198Z,822.25
2022-12-01T11:15:31.043Z,826.03
2022-12-01T11:18:08.152Z,826.10
2022-12-01T11:20:42.315Z,828.13
2022-12-01T11:23:28.476Z,827.95
2022-12-01T11:26:12.059Z,829.65
2022-12-01T11:28:53.859Z,836.47
2022-12-01T11:31:28.527Z,836.33
2022-12-01T11:34:02.867Z,839.85
2022-12-01T11:36:39.936Z,832.88
2022-12-01T11:39:26.119Z,832.55
2022-12-01T11:42:00.176Z,832.28
2022-12-01T11:47:27.558Z,832.15
2022-12-01T11:50:04.318Z,833.88
2022-12-01T11:52:37.746Z,835.33
2022-12-01T11:55:26.298Z,834.00
2022-12-01T11:58:02.399Z,832.97
2022-12-01T12:00:43.998Z,839.53
2022-12-01T12:03:33.271Z,832.58
2022-12-01T12:06:39.519Z,833.08
2022-12-01T12:09:34.215Z,830.53
2022-12-01T12:12:14.542Z,834.63
2022-12-01T12:14:56.538Z,833.80
2022-12-01T12:17:47.577Z,835.53
2022-12-01T12:20:34.808Z,836.28
2022-12-01T12:23:28.136Z,835.90
2022-12-01T12:26:07.782Z,837.22
2022-12-01T12:28:55.467Z,831.33
2022-12-01T12:31:38.130Z,836.83
2022-12-01T12:34:26.939Z,832.17
2022-12-01T12:37:17.630Z,833.72
2022-12-01T12:40:17.859Z,834.85
2022-12-01T12:43:00.262Z,829.50
2022-12-01T12:45:43.773Z,827.97
2022-12-01T12:48:26.857Z,807.75
2022-12-01T12:51:08.620Z,811.40
2022-12-01T12:53:47.941Z,807.03
2022-12-01T12:56:26.395Z,809.97
2022-12-01T12:59:04.140Z,832.30
2022-12-01T13:01:41.254Z,837.08
2022-12-01T13:04:16.999Z,812.35
2022-12-01T13:06:53.984Z,825.92
2022-12-01T13:09:30.671Z,815.45
2022-12-01T13:12:16.060Z,837.58
2022-12-01T13:14:56.465Z,838.03
2022-12-01T13:17:38.735Z,835.80
2022-12-01T13:20:18.668Z,835.30
2022-12-01T13:22:51.398Z,833.10
2022-12-01T13:25:29.822Z,832.88
2022-12-01T13:28:06.603Z,831.65
2022-12-01T13:30:38.642Z,829.85
2022-12-01T13:35:42.751Z,829.00
2022-12-01T13:38:25.359Z,828.53
2022-12-01T13:41:16.679Z,831.47
2022-12-01T13:44:07.805Z,828.80
2022-12-01T13:46:55.549Z,828.22
2022-12-01T13:49:42.990Z,829.05
2022-12-01T13:52:32.077Z,829.47
2022-12-01T13:55:23.239Z,831.28
2022-12-01T13:58:25.119Z,833.65
2022-12-01T14:01:35.304Z,825.33
2022-12-01T14:04:28.160Z,830.17
2022-12-01T14:07:29.668Z,832.05
2022-12-01T14:10:12.978Z,836.38
